Time;durP1;ratioP1;P1;durP2;ratioP2;P2;SDS_P1;SDS_P2;PMS_P1;PMS_P2;Temp;Humidity;BMP_temperature;BMP_pressure;BME280_temperature;BME280_humidity;BME280_pressure;Samples;Min_cycle;Max_cycle;Signal;HPM_P1;HPM_P2
2023/06/01 00:01:50;;;;;;;23.03;11.10;;;17.00;99.90;;;;;;7287300;19;20848;-81
2023/06/01 00:04:16;;;;;;;19.93;10.63;;;16.80;99.90;;;;;;7287658;19;20314;-80
2023/06/01 00:06:43;;;;;;;20.03;10.83;;;16.90;99.90;;;;;;7287822;19;21054;-80
2023/06/01 00:09:09;;;;;;;20.87;10.37;;;16.80;99.90;;;;;;7310113;19;20203;-80
2023/06/01 00:11:35;;;;;;;21.50;10.70;;;16.70;99.90;;;;;;7286666;19;20667;-80
2023/06/01 00:14:01;;;;;;;23.80;11.23;;;16.60;99.90;;;;;;7288132;19;20205;-80
2023/06/01 00:16:27;;;;;;;21.47;11.57;;;16.70;99.90;;;;;;7288112;19;20200;-80
2023/06/01 00:18:56;;;;;;;20.67;11.00;;;16.70;99.90;;;;;;7287410;19;20204;-81
2023/06/01 00:21:22;;;;;;;22.50;11.67;;;16.70;99.90;;;;;;7287345;19;20197;-80
2023/06/01 00:23:49;;;;;;;20.53;10.43;;;16.60;99.90;;;;;;7280447;19;20546;-80
2023/06/01 00:26:15;;;;;;;24.43;10.53;;;16.60;99.90;;;;;;7287241;19;20680;-80
2023/06/01 00:28:43;;;;;;;19.67;10.43;;;16.40;99.90;;;;;;7287236;19;20252;-80
2023/06/01 00:31:09;;;;;;;17.70;10.13;;;16.30;99.90;;;;;;7308702;19;20189;-80
2023/06/01 00:33:35;;;;;;;19.87;10.60;;;16.30;99.90;;;;;;7288122;19;20188;-80
2023/06/01 00:36:01;;;;;;;21.60;10.70;;;16.20;99.90;;;;;;7287468;19;20213;-80
2023/06/01 00:38:26;;;;;;;18.00;9.97;;;16.00;99.90;;;;;;7285439;19;20197;-80
2023/06/01 00:40:52;;;;;;;23.93;10.73;;;16.00;99.90;;;;;;7286482;19;20196;-80
2023/06/01 00:43:18;;;;;;;19.10;10.40;;;15.90;99.90;;;;;;7286102;19;20196;-80
2023/06/01 00:45:45;;;;;;;20.10;10.37;;;15.80;99.90;;;;;;7286626;19;20193;-80
2023/06/01 00:48:12;;;;;;;18.37;9.87;;;15.70;99.90;;;;;;7305692;19;20188;-80
2023/06/01 00:50:40;;;;;;;18.50;10.10;;;15.80;99.90;;;;;;7308192;19;20633;-80
2023/06/01 00:53:10;;;;;;;18.50;10.70;;;15.80;99.90;;;;;;7287198;19;20181;-80
2023/06/01 00:55:37;;;;;;;20.70;10.93;;;15.80;99.90;;;;;;7286779;19;20206;-81
2023/06/01 00:58:03;;;;;;;19.83;10.20;;;15.80;99.90;;;;;;7286954;19;20197;-80
2023/06/01 01:00:29;;;;;;;21.10;10.80;;;15.70;99.90;;;;;;7285911;19;20649;-80
2023/06/01 01:02:56;;;;;;;19.37;10.57;;;15.70;99.90;;;;;;7285294;19;20553;-80
2023/06/01 01:05:26;;;;;;;23.37;10.90;;;15.70;99.90;;;;;;7286071;19;20192;-80
2023/06/01 01:08:04;;;;;;;23.20;11.17;;;15.70;99.90;;;;;;7285658;19;20648;-80
2023/06/01 01:10:36;;;;;;;19.43;11.07;;;15.80;99.90;;;;;;7285137;19;20208;-80
2023/06/01 01:13:26;;;;;;;20.67;10.93;;;15.70;99.90;;;;;;7287064;19;20311;-80
2023/06/01 01:16:07;;;;;;;26.10;12.03;;;15.60;99.90;;;;;;7184075;19;2004811;-80
2023/06/01 01:18:40;;;;;;;20.73;11.27;;;15.60;99.90;;;;;;7286028;19;20193;-81
2023/06/01 01:21:28;;;;;;;21.80;11.47;;;15.60;99.90;;;;;;7287203;19;20188;-80
2023/06/01 01:24:13;;;;;;;27.93;10.70;;;15.40;99.90;;;;;;7183430;19;2006228;-80
2023/06/01 01:27:10;;;;;;;21.07;11.53;;;15.30;99.90;;;;;;7284848;19;20599;-80
2023/06/01 01:29:37;;;;;;;19.93;11.43;;;15.40;99.90;;;;;;7183702;19;2006298;-80
2023/06/01 01:32:05;;;;;;;25.17;11.27;;;15.40;99.90;;;;;;7283215;19;20180;-80
2023/06/01 01:34:32;;;;;;;16.77;10.93;;;15.40;99.90;;;;;;7287424;19;20198;-80
2023/06/01 01:36:58;;;;;;;24.17;12.23;;;15.20;99.90;;;;;;7285013;19;20217;-80
2023/06/01 01:39:24;;;;;;;21.93;11.40;;;15.20;99.90;;;;;;7286526;19;20213;-80
2023/06/01 01:41:50;;;;;;;22.30;11.63;;;15.30;99.90;;;;;;7284292;19;20650;-80
2023/06/01 01:44:17;;;;;;;22.27;12.03;;;15.40;99.90;;;;;;7284120;19;20551;-80
2023/06/01 01:46:58;;;;;;;23.50;11.57;;;15.20;99.90;;;;;;7285840;19;20177;-80
2023/06/01 01:49:49;;;;;;;21.53;12.23;;;15.30;99.90;;;;;;7284520;19;20216;-80
2023/06/01 01:52:34;;;;;;;20.13;11.47;;;15.20;99.90;;;;;;7265499;19;20209;-80
2023/06/01 01:55:02;;;;;;;18.93;11.47;;;15.20;99.90;;;;;;7284890;19;20185;-80
2023/06/01 01:57:30;;;;;;;24.23;12.03;;;15.30;99.90;;;;;;7283903;19;20192;-80
2023/06/01 01:59:57;;;;;;;22.97;11.77;;;15.20;99.90;;;;;;7284234;19;20195;-80
2023/06/01 02:02:23;;;;;;;20.80;12.57;;;14.90;99.90;;;;;;7283372;19;20180;-80
2023/06/01 02:04:48;;;;;;;24.90;11.70;;;14.90;99.90;;;;;;7284176;19;20277;-80
2023/06/01 02:07:15;;;;;;;24.20;12.57;;;15.00;99.90;;;;;;7285784;19;20338;-80
2023/06/01 02:09:42;;;;;;;22.73;12.73;;;15.00;99.90;;;;;;7297424;19;20205;-79
2023/06/01 02:12:09;;;;;;;26.60;12.60;;;15.00;99.90;;;;;;7305955;19;20204;-80
2023/06/01 02:14:36;;;;;;;22.40;12.37;;;14.90;99.90;;;;;;7284980;19;20183;-80
2023/06/01 02:17:02;;;;;;;22.70;12.83;;;14.80;99.90;;;;;;7284506;19;20189;-80
2023/06/01 02:19:28;;;;;;;22.23;12.37;;;14.80;99.90;;;;;;7283706;19;20219;-80
2023/06/01 02:21:55;;;;;;;21.53;12.67;;;14.80;99.90;;;;;;7283990;19;20189;-80
2023/06/01 02:24:21;;;;;;;28.03;13.53;;;14.80;99.90;;;;;;7284482;19;20195;-80
2023/06/01 02:26:53;;;;;;;23.73;13.13;;;14.70;99.90;;;;;;7285037;19;20196;-80
2023/06/01 02:29:22;;;;;;;25.33;12.73;;;14.70;99.90;;;;;;7284711;19;20189;-81
2023/06/01 02:31:51;;;;;;;25.97;14.47;;;14.60;99.90;;;;;;7287359;19;21119;-80
2023/06/01 02:34:17;;;;;;;23.67;13.70;;;14.60;99.90;;;;;;7286763;19;20199;-80
2023/06/01 02:36:46;;;;;;;30.60;14.40;;;14.70;99.90;;;;;;7285514;19;20191;-80
2023/06/01 02:39:12;;;;;;;22.23;12.37;;;14.70;99.90;;;;;;7286413;19;20342;-80
2023/06/01 02:41:40;;;;;;;24.67;13.33;;;14.60;99.90;;;;;;7305381;19;20193;-80
2023/06/01 02:44:06;;;;;;;26.90;13.77;;;14.50;99.90;;;;;;7282566;19;20621;-79
2023/06/01 02:46:32;;;;;;;29.17;14.47;;;14.50;99.90;;;;;;7282878;19;20209;-80
2023/06/01 02:48:57;;;;;;;27.10;14.63;;;14.50;99.90;;;;;;7291027;19;20189;-80
2023/06/01 02:51:23;;;;;;;27.37;14.17;;;14.60;99.90;;;;;;7290739;19;20195;-80
2023/06/01 02:53:58;;;;;;;25.87;14.77;;;14.60;99.90;;;;;;7291067;19;20191;-80
2023/06/01 02:56:23;;;;;;;25.27;13.90;;;14.40;99.90;;;;;;7289501;19;20768;-80
2023/06/01 02:59:08;;;;;;;26.67;14.07;;;14.30;99.90;;;;;;7290511;19;20187;-80
2023/06/01 03:01:39;;;;;;;27.10;15.10;;;14.20;99.90;;;;;;7290189;19;20208;-81
2023/06/01 03:04:07;;;;;;;25.37;13.97;;;14.30;99.90;;;;;;7290261;19;20190;-81
2023/06/01 03:06:37;;;;;;;25.13;14.63;;;14.20;99.90;;;;;;7288292;19;20189;-80
2023/06/01 03:09:12;;;;;;;23.73;14.47;;;14.20;99.90;;;;;;7290154;19;20664;-80
2023/06/01 03:11:54;;;;;;;28.60;14.10;;;14.20;99.90;;;;;;7186686;19;2004484;-81
2023/06/01 03:14:21;;;;;;;29.53;15.13;;;14.20;99.90;;;;;;7288545;19;20187;-80
2023/06/01 03:16:47;;;;;;;26.50;14.93;;;14.10;99.90;;;;;;7289147;19;20186;-80
2023/06/01 03:19:17;;;;;;;26.73;13.93;;;14.10;99.90;;;;;;7288024;19;20195;-80
2023/06/01 03:21:46;;;;;;;27.60;15.47;;;14.10;99.90;;;;;;7286867;19;20199;-80
2023/06/01 03:24:12;;;;;;;28.43;15.47;;;14.00;99.90;;;;;;7294543;19;20201;-80
2023/06/01 03:26:38;;;;;;;30.23;15.17;;;13.90;99.90;;;;;;7309977;19;20660;-80
2023/06/01 03:29:04;;;;;;;30.57;15.20;;;13.90;99.90;;;;;;7289302;19;20197;-80
2023/06/01 03:31:34;;;;;;;30.23;15.23;;;13.90;99.90;;;;;;7289280;19;20272;-80
2023/06/01 03:34:01;;;;;;;33.43;15.97;;;13.90;99.90;;;;;;7287342;19;20193;-80
2023/06/01 03:36:27;;;;;;;30.83;15.93;;;13.80;99.90;;;;;;7288819;19;20191;-80
2023/06/01 03:38:54;;;;;;;29.80;16.77;;;13.60;99.90;;;;;;7287707;19;20185;-80
2023/06/01 03:41:21;;;;;;;31.53;16.00;;;13.50;99.90;;;;;;7288093;19;20203;-80
2023/06/01 03:43:47;;;;;;;30.03;16.67;;;13.50;99.90;;;;;;7288028;19;20212;-80
2023/06/01 03:46:13;;;;;;;33.27;17.20;;;13.70;99.90;;;;;;7288597;19;20190;-79
2023/06/01 03:48:39;;;;;;;32.63;16.93;;;13.60;99.90;;;;;;7311064;19;20187;-80
2023/06/01 03:51:06;;;;;;;32.83;16.97;;;13.60;99.90;;;;;;7288001;19;20203;-80
2023/06/01 03:53:32;;;;;;;33.50;17.13;;;13.50;99.90;;;;;;7288471;19;20629;-80
2023/06/01 03:55:57;;;;;;;30.50;16.20;;;13.70;99.90;;;;;;7288157;19;20187;-80
2023/06/01 03:58:31;;;;;;;34.77;16.40;;;13.60;99.90;;;;;;7285076;19;20182;-80
2023/06/01 04:00:57;;;;;;;33.40;16.77;;;13.50;99.90;;;;;;7287404;19;20193;-80
2023/06/01 04:03:24;;;;;;;31.67;17.83;;;13.60;99.90;;;;;;7286319;19;20658;-80
2023/06/01 04:05:50;;;;;;;35.00;17.43;;;13.50;99.90;;;;;;7288618;19;20625;-79
2023/06/01 04:08:17;;;;;;;36.70;17.77;;;13.60;99.90;;;;;;7287443;19;20190;-80
2023/06/01 04:10:43;;;;;;;29.80;17.33;;;13.60;99.90;;;;;;7291564;19;20210;-79
2023/06/01 04:13:09;;;;;;;36.13;19.60;;;13.50;99.90;;;;;;7309194;19;20257;-80
2023/06/01 04:15:36;;;;;;;35.20;18.80;;;13.40;99.90;;;;;;7287238;19;20190;-80
2023/06/01 04:18:03;;;;;;;34.10;17.83;;;13.50;99.90;;;;;;7289109;19;20587;-80
2023/06/01 04:20:41;;;;;;;32.30;17.93;;;13.60;99.90;;;;;;7284758;19;20192;-80
2023/06/01 04:23:07;;;;;;;32.47;17.80;;;13.80;99.90;;;;;;7298160;19;20187;-79
2023/06/01 04:25:33;;;;;;;35.37;18.37;;;13.90;99.90;;;;;;7287435;19;20190;-80
2023/06/01 04:27:59;;;;;;;32.70;17.53;;;14.00;99.90;;;;;;7288128;19;20193;-80
2023/06/01 04:30:29;;;;;;;36.70;18.87;;;14.10;99.90;;;;;;7286919;19;20222;-80
2023/06/01 04:32:55;;;;;;;39.07;18.87;;;14.20;99.90;;;;;;7286848;19;20221;-79
2023/06/01 04:35:21;;;;;;;35.03;18.83;;;14.30;99.90;;;;;;7288308;19;20181;-79
2023/06/01 04:37:48;;;;;;;31.67;18.03;;;14.70;99.90;;;;;;7288080;19;20258;-80
2023/06/01 04:40:16;;;;;;;31.47;17.87;;;15.10;99.90;;;;;;7286337;19;20182;-80
2023/06/01 04:42:48;;;;;;;33.27;17.53;;;15.40;99.90;;;;;;7297279;19;20287;-80
2023/06/01 04:45:15;;;;;;;32.10;18.90;;;15.70;99.90;;;;;;7285245;19;20181;-79
2023/06/01 04:47:44;;;;;;;33.53;18.10;;;15.80;99.90;;;;;;7296357;19;20185;-80
2023/06/01 04:50:17;;;;;;;32.30;17.67;;;16.00;99.90;;;;;;7284609;19;20202;-80
2023/06/01 04:52:44;;;;;;;28.57;16.73;;;16.20;99.90;;;;;;7285785;19;20679;-78
2023/06/01 04:55:13;;;;;;;31.87;16.97;;;16.60;99.90;;;;;;7307314;19;20290;-78
2023/06/01 04:57:42;;;;;;;32.70;17.57;;;16.80;99.90;;;;;;7285536;19;20252;-79
2023/06/01 05:00:12;;;;;;;28.23;17.17;;;17.00;99.90;;;;;;7287996;19;20294;-78
2023/06/01 05:02:46;;;;;;;28.87;16.40;;;17.00;99.90;;;;;;7285949;19;20195;-79
2023/06/01 05:05:13;;;;;;;28.33;16.77;;;16.80;99.90;;;;;;7279456;19;20185;-80
2023/06/01 05:07:41;;;;;;;30.63;15.63;;;16.60;99.90;;;;;;7308095;19;20623;-81
2023/06/01 05:10:08;;;;;;;27.90;16.70;;;16.70;99.90;;;;;;7287064;19;20192;-83
2023/06/01 05:12:42;;;;;;;32.07;17.10;;;17.00;99.90;;;;;;7280395;19;20267;-84
2023/06/01 05:15:08;;;;;;;27.30;16.97;;;17.50;99.90;;;;;;7300744;19;20298;-79
2023/06/01 05:17:38;;;;;;;30.27;17.03;;;17.40;99.90;;;;;;7286758;19;20188;-82
2023/06/01 05:20:08;;;;;;;31.17;18.43;;;17.50;99.90;;;;;;7286556;19;20203;-84
2023/06/01 05:22:35;;;;;;;31.07;17.97;;;17.20;99.90;;;;;;7285853;19;20768;-81
2023/06/01 05:25:02;;;;;;;33.33;19.20;;;17.10;99.90;;;;;;7286327;19;22749;-81
2023/06/01 05:27:28;;;;;;;33.10;19.40;;;16.40;99.90;;;;;;7284435;19;20206;-81
2023/06/01 05:29:55;;;;;;;33.50;19.90;;;16.10;99.90;;;;;;7283151;19;20192;-81
2023/06/01 05:32:21;;;;;;;35.10;20.80;;;15.80;99.90;;;;;;7283849;19;20267;-82
2023/06/01 05:34:47;;;;;;;33.53;19.90;;;15.60;99.90;;;;;;7285250;19;20205;-80
2023/06/01 05:37:13;;;;;;;34.40;19.30;;;15.50;99.90;;;;;;7292763;19;20665;-81
2023/06/01 05:39:39;;;;;;;35.90;20.43;;;15.30;99.90;;;;;;7308390;19;20206;-82
2023/06/01 05:42:05;;;;;;;37.67;19.37;;;15.10;99.90;;;;;;7287117;19;20215;-82
2023/06/01 05:44:35;;;;;;;36.87;21.33;;;15.10;99.90;;;;;;7285492;19;20658;-81
2023/06/01 05:47:01;;;;;;;34.87;20.33;;;15.10;99.90;;;;;;7284462;19;20193;-80
2023/06/01 05:49:31;;;;;;;34.83;19.63;;;15.00;99.90;;;;;;7286035;19;20668;-83
2023/06/01 05:51:57;;;;;;;37.57;20.70;;;15.10;99.90;;;;;;7289646;19;20205;-84
2023/06/01 05:54:23;;;;;;;40.17;21.63;;;15.00;99.90;;;;;;7292472;19;20196;-84
2023/06/01 05:56:48;;;;;;;44.70;22.67;;;14.90;99.90;;;;;;7286081;19;20195;-84
2023/06/01 05:59:15;;;;;;;35.80;21.63;;;14.90;99.90;;;;;;7283368;19;20200;-83
2023/06/01 06:01:44;;;;;;;39.10;21.67;;;15.00;99.90;;;;;;7307644;19;20208;-84
2023/06/01 06:04:10;;;;;;;39.70;22.37;;;15.00;99.90;;;;;;7285920;19;20195;-84
2023/06/01 06:06:36;;;;;;;42.57;23.70;;;15.00;99.90;;;;;;7284519;19;20195;-83
2023/06/01 06:09:04;;;;;;;40.97;22.63;;;15.00;99.90;;;;;;7284683;19;20643;-84
2023/06/01 06:11:30;;;;;;;42.17;24.33;;;15.00;99.90;;;;;;7283647;19;20688;-84
2023/06/01 06:13:56;;;;;;;43.57;25.40;;;15.20;99.90;;;;;;7281742;19;20207;-83
2023/06/01 06:16:21;;;;;;;42.23;23.37;;;15.00;99.90;;;;;;7284053;19;20179;-84
2023/06/01 06:18:47;;;;;;;42.70;23.93;;;14.90;99.90;;;;;;7282821;19;20572;-84
2023/06/01 06:21:13;;;;;;;42.00;22.17;;;15.00;99.90;;;;;;7290513;19;20619;-84
2023/06/01 06:23:39;;;;;;;45.43;23.53;;;14.90;99.90;;;;;;7310098;19;20191;-84
2023/06/01 06:26:06;;;;;;;42.13;23.40;;;14.70;99.90;;;;;;7288057;19;20823;-85
2023/06/01 06:28:32;;;;;;;47.03;27.23;;;14.70;99.90;;;;;;7291461;19;20703;-84
2023/06/01 06:30:58;;;;;;;43.97;25.87;;;14.70;99.90;;;;;;7291073;19;20645;-84
2023/06/01 06:33:24;;;;;;;44.07;25.07;;;14.70;99.90;;;;;;7292145;19;20195;-84
2023/06/01 06:35:50;;;;;;;45.13;24.47;;;15.10;99.90;;;;;;7290767;19;20192;-84
2023/06/01 06:38:16;;;;;;;40.90;23.30;;;15.60;99.90;;;;;;7290247;19;20216;-83
2023/06/01 06:40:42;;;;;;;38.13;22.30;;;15.90;99.90;;;;;;7310063;19;20188;-82
2023/06/01 06:43:08;;;;;;;40.00;23.80;;;16.30;99.90;;;;;;7308460;19;20192;-84
2023/06/01 06:45:34;;;;;;;37.73;23.10;;;16.90;99.90;;;;;;7292042;19;20223;-84
2023/06/01 06:48:00;;;;;;;42.23;23.83;;;16.90;99.90;;;;;;7290894;19;20192;-84
2023/06/01 06:50:26;;;;;;;38.60;23.03;;;17.10;99.90;;;;;;7291313;19;20192;-84
2023/06/01 06:52:52;;;;;;;38.00;24.20;;;17.20;99.90;;;;;;7290500;19;20474;-84
2023/06/01 06:55:18;;;;;;;37.70;22.60;;;17.50;99.90;;;;;;7290276;19;20193;-83
2023/06/01 06:57:44;;;;;;;32.67;21.70;;;18.30;99.90;;;;;;7289853;19;20213;-83
2023/06/01 07:00:14;;;;;;;33.07;20.37;;;18.70;99.90;;;;;;7310692;19;20261;-84
2023/06/01 07:02:41;;;;;;;32.97;20.60;;;19.90;99.90;;;;;;7289498;19;20302;-84
2023/06/01 07:05:08;;;;;;;31.63;20.90;;;20.80;99.90;;;;;;7290114;19;20185;-84
2023/06/01 07:07:34;;;;;;;31.67;19.30;;;21.50;99.90;;;;;;7289735;19;20187;-84
2023/06/01 07:10:00;;;;;;;34.23;20.57;;;22.00;99.90;;;;;;7290796;19;20193;-84
2023/06/01 07:12:25;;;;;;;31.10;20.40;;;22.20;99.90;;;;;;7289445;19;20196;-84
2023/06/01 07:14:51;;;;;;;28.13;19.20;;;21.90;99.90;;;;;;7290368;19;20187;-84
2023/06/01 07:17:17;;;;;;;32.37;20.00;;;21.60;99.90;;;;;;7289214;19;20192;-84
2023/06/01 07:19:42;;;;;;;32.13;20.97;;;21.80;99.90;;;;;;7302897;19;20192;-84
2023/06/01 07:22:08;;;;;;;34.60;21.73;;;21.90;99.90;;;;;;7305941;19;20185;-84
2023/06/01 07:24:34;;;;;;;32.43;21.07;;;22.20;99.90;;;;;;7288482;19;20193;-84
2023/06/01 07:26:59;;;;;;;33.40;19.80;;;23.90;99.90;;;;;;7287621;19;20209;-84
2023/06/01 07:29:26;;;;;;;30.97;20.90;;;25.60;99.90;;;;;;7290134;19;20221;-84
2023/06/01 07:31:52;;;;;;;29.33;20.17;;;25.50;99.90;;;;;;7290457;19;20276;-84
2023/06/01 07:34:18;;;;;;;32.87;20.37;;;25.40;99.90;;;;;;7289825;19;20192;-84
2023/06/01 07:36:46;;;;;;;29.02;19.23;;;26.30;99.90;;;;;;7287228;19;20192;-84
2023/06/01 07:39:13;;;;;;;28.25;20.30;;;26.50;99.90;;;;;;7303824;19;20603;-83
2023/06/01 07:41:39;;;;;;;33.80;20.40;;;27.10;99.90;;;;;;7308090;19;20181;-85
2023/06/01 07:44:07;;;;;;;31.02;20.75;;;27.10;99.90;;;;;;7288402;19;20196;-84
2023/06/01 07:46:33;;;;;;;30.13;20.85;;;27.00;99.90;;;;;;7289093;19;20186;-84
2023/06/01 07:48:59;;;;;;;28.50;20.00;;;26.90;99.90;;;;;;7290164;19;20272;-84
2023/06/01 07:51:24;;;;;;;27.95;20.25;;;26.50;99.90;;;;;;7286624;19;20188;-85
2023/06/01 07:53:50;;;;;;;29.15;20.58;;;26.70;99.90;;;;;;7288464;19;20185;-84
2023/06/01 07:56:16;;;;;;;30.05;21.63;;;26.40;99.90;;;;;;7288312;19;20188;-84
2023/06/01 07:58:44;;;;;;;28.60;21.77;;;27.00;99.90;;;;;;7307268;19;20190;-82
2023/06/01 08:01:10;;;;;;;27.60;20.73;;;27.30;99.90;;;;;;7310637;19;20217;-84
2023/06/01 08:03:36;;;;;;;29.52;20.33;;;26.50;99.90;;;;;;7287225;19;20667;-84
2023/06/01 08:06:04;;;;;;;32.33;20.25;;;26.10;99.90;;;;;;7287556;19;20247;-84
2023/06/01 08:08:31;;;;;;;29.13;20.85;;;26.60;99.90;;;;;;7287485;19;20185;-84
2023/06/01 08:10:57;;;;;;;30.27;20.73;;;27.00;99.90;;;;;;7287296;19;20199;-84
2023/06/01 08:13:25;;;;;;;30.85;20.83;;;26.80;99.90;;;;;;7286020;19;20193;-84
2023/06/01 08:15:52;;;;;;;26.73;19.13;;;26.10;99.90;;;;;;7287715;19;20208;-84
2023/06/01 08:18:19;;;;;;;28.80;19.80;;;25.70;99.90;;;;;;7287915;19;20664;-84
2023/06/01 08:20:45;;;;;;;26.33;18.55;;;26.30;99.90;;;;;;7287564;19;20249;-83
2023/06/01 08:23:11;;;;;;;26.65;18.23;;;26.60;99.90;;;;;;7310067;19;20188;-83
2023/06/01 08:25:37;;;;;;;23.95;17.88;;;26.70;99.90;;;;;;7288934;19;20296;-84
2023/06/01 08:28:03;;;;;;;25.27;18.10;;;26.10;99.90;;;;;;7288063;19;20783;-84
2023/06/01 08:30:29;;;;;;;27.77;18.73;;;26.00;99.90;;;;;;7287212;19;20196;-83
2023/06/01 08:32:55;;;;;;;27.27;19.20;;;26.30;99.90;;;;;;7288109;19;20184;-83
2023/06/01 08:35:20;;;;;;;25.20;17.67;;;27.00;99.90;;;;;;7287694;19;20587;-83
2023/06/01 08:37:49;;;;;;;75.28;44.10;;;27.80;99.90;;;;;;7285603;19;20181;-83
2023/06/01 08:40:15;;;;;;;26.08;16.80;;;27.50;99.90;;;;;;7288141;19;20181;-83
2023/06/01 08:43:14;;;;;;;29.75;21.25;;;28.40;99.90;;;;;;7308788;19;20660;-84
2023/06/01 08:45:40;;;;;;;23.80;16.05;;;28.50;99.90;;;;;;7184217;19;2004521;-84
2023/06/01 08:48:08;;;;;;;28.80;18.27;;;29.00;99.20;;;;;;7288834;19;20181;-84
2023/06/01 08:50:34;;;;;;;27.55;17.70;;;28.80;98.00;;;;;;7288693;19;21009;-83
2023/06/01 08:53:01;;;;;;;52.10;35.20;;;29.00;97.40;;;;;;7287176;19;20209;-83
2023/06/01 08:55:27;;;;;;;26.10;17.50;;;28.80;98.00;;;;;;7287890;19;20184;-84
2023/06/01 08:57:54;;;;;;;24.15;17.50;;;28.30;99.30;;;;;;7288177;19;20200;-83
2023/06/01 09:00:20;;;;;;;27.33;17.55;;;28.70;96.90;;;;;;7287033;19;20189;-84
2023/06/01 09:02:46;;;;;;;28.85;17.88;;;28.80;98.10;;;;;;7287874;19;20177;-83
2023/06/01 09:05:13;;;;;;;27.30;17.00;;;29.10;97.60;;;;;;7308327;19;20663;-82
2023/06/01 09:07:40;;;;;;;27.65;17.42;;;28.30;97.30;;;;;;7311233;19;20205;-83
2023/06/01 09:10:07;;;;;;;28.38;17.77;;;27.60;97.30;;;;;;7287343;19;20192;-84
2023/06/01 09:12:33;;;;;;;24.65;17.50;;;27.80;97.90;;;;;;7285109;19;20212;-84
2023/06/01 09:15:17;;;;;;;30.73;18.88;;;28.20;98.40;;;;;;7287474;19;20185;-84
2023/06/01 09:17:48;;;;;;;26.20;18.40;;;28.40;98.50;;;;;;7277494;19;20181;-84
2023/06/01 09:20:24;;;;;;;24.40;18.42;;;28.20;97.20;;;;;;7289345;19;20278;-83
2023/06/01 09:22:50;;;;;;;26.80;18.42;;;28.00;97.40;;;;;;7285981;19;20620;-84
2023/06/01 09:25:16;;;;;;;27.65;17.58;;;28.20;96.80;;;;;;7286309;19;20286;-83
2023/06/01 09:27:50;;;;;;;29.02;16.92;;;28.20;97.20;;;;;;7306143;19;20188;-82
2023/06/01 09:30:18;;;;;;;25.98;17.63;;;28.60;97.00;;;;;;7286089;19;20200;-84
2023/06/01 09:32:50;;;;;;;27.23;17.70;;;29.40;95.60;;;;;;7284528;19;20270;-83
2023/06/01 09:35:36;;;;;;;26.02;16.95;;;28.60;95.10;;;;;;7286661;19;20248;-83
2023/06/01 09:38:05;;;;;;;27.35;16.95;;;28.50;96.00;;;;;;7284926;19;20188;-84
2023/06/01 09:40:32;;;;;;;23.27;16.13;;;29.00;95.70;;;;;;7284394;19;20189;-84
2023/06/01 09:42:58;;;;;;;24.20;15.90;;;29.00;95.10;;;;;;7285185;19;20192;-84
2023/06/01 09:45:24;;;;;;;22.95;14.57;;;28.70;94.80;;;;;;7284555;19;20539;-84
2023/06/01 09:47:51;;;;;;;24.85;14.55;;;29.00;95.60;;;;;;7284971;19;20264;-82
2023/06/01 09:50:37;;;;;;;20.95;14.85;;;29.40;94.40;;;;;;7285001;19;20256;-84
2023/06/01 09:53:04;;;;;;;20.65;14.73;;;29.80;93.70;;;;;;7285816;19;20178;-84
2023/06/01 09:55:30;;;;;;;24.42;15.10;;;30.10;92.10;;;;;;7285556;19;20181;-84
2023/06/01 09:58:20;;;;;;;22.00;14.93;;;28.80;93.40;;;;;;7288658;19;20189;-84
2023/06/01 10:00:48;;;;;;;21.92;14.18;;;29.10;93.30;;;;;;7270906;19;20192;-84
2023/06/01 10:03:15;;;;;;;27.40;15.27;;;29.30;93.00;;;;;;7293590;19;20189;-83
2023/06/01 10:05:46;;;;;;;24.13;14.35;;;29.50;92.80;;;;;;7314150;19;20244;-84
2023/06/01 10:08:13;;;;;;;21.67;14.25;;;29.50;92.30;;;;;;7290802;19;20184;-84
2023/06/01 10:10:41;;;;;;;19.42;14.25;;;29.80;92.80;;;;;;7291088;19;20298;-84
2023/06/01 10:13:07;;;;;;;21.23;13.95;;;29.80;91.50;;;;;;7290753;19;20263;-84
2023/06/01 10:15:33;;;;;;;23.02;15.25;;;29.60;91.10;;;;;;7290325;19;20205;-84
2023/06/01 10:18:00;;;;;;;23.40;13.40;;;29.40;91.70;;;;;;7290942;19;20185;-84
2023/06/01 10:20:26;;;;;;;25.67;16.10;;;30.60;90.70;;;;;;7291541;19;20193;-84
2023/06/01 10:22:52;;;;;;;25.45;14.68;;;30.10;90.00;;;;;;7291186;19;20475;-85
2023/06/01 10:25:21;;;;;;;21.10;13.63;;;30.20;88.90;;;;;;7290414;19;20536;-84
2023/06/01 10:27:59;;;;;;;19.95;13.13;;;30.80;90.50;;;;;;7290140;19;20192;-84
2023/06/01 10:30:25;;;;;;;23.92;13.55;;;30.50;85.60;;;;;;7290472;19;20205;-84
2023/06/01 10:32:51;;;;;;;20.20;12.30;;;30.00;86.40;;;;;;7292032;19;20184;-85
2023/06/01 10:35:32;;;;;;;20.42;12.35;;;30.10;87.10;;;;;;7291139;19;20202;-83
2023/06/01 10:38:24;;;;;;;20.15;13.82;;;31.10;86.20;;;;;;7289734;19;20185;-83
2023/06/01 10:40:49;;;;;;;24.33;13.57;;;29.90;85.80;;;;;;7187656;19;2004612;-83
2023/06/01 10:43:47;;;;;;;21.05;13.50;;;30.50;82.30;;;;;;7290550;19;20193;-83
2023/06/01 10:46:34;;;;;;;21.20;13.98;;;30.10;82.00;;;;;;7282155;19;20624;-83
2023/06/01 10:49:00;;;;;;;21.23;13.52;;;29.70;83.60;;;;;;7291256;19;20346;-84
2023/06/01 10:51:27;;;;;;;21.38;13.18;;;29.40;83.40;;;;;;7290482;19;20201;-84
2023/06/01 10:53:53;;;;;;;21.45;12.48;;;29.20;81.50;;;;;;7290259;19;20641;-83
2023/06/01 10:56:27;;;;;;;18.05;11.63;;;28.80;83.20;;;;;;7289239;19;20583;-84
2023/06/01 10:59:08;;;;;;;19.65;11.80;;;28.80;83.80;;;;;;7290887;19;20684;-84
2023/06/01 11:01:35;;;;;;;21.88;13.07;;;29.30;82.50;;;;;;7290711;19;20182;-84
2023/06/01 11:04:01;;;;;;;21.40;12.18;;;29.90;82.80;;;;;;7286765;19;20218;-84
2023/06/01 11:06:33;;;;;;;19.58;11.45;;;29.80;80.20;;;;;;7288428;19;20210;-84
2023/06/01 11:09:01;;;;;;;18.08;12.38;;;30.20;79.00;;;;;;7288383;19;20185;-84
2023/06/01 11:11:51;;;;;;;17.65;11.98;;;29.70;76.10;;;;;;7288797;19;20189;-84
2023/06/01 11:14:24;;;;;;;20.10;13.00;;;29.20;79.20;;;;;;7269170;19;20189;-84
2023/06/01 11:16:52;;;;;;;20.83;13.23;;;29.40;79.90;;;;;;7289545;19;20216;-84
2023/06/01 11:19:24;;;;;;;18.92;12.30;;;29.30;79.30;;;;;;7289585;19;20207;-84
2023/06/01 11:21:58;;;;;;;17.52;13.02;;;29.30;80.40;;;;;;7290377;19;20284;-84
2023/06/01 11:24:30;;;;;;;18.33;12.73;;;29.30;78.50;;;;;;7287937;19;20196;-83
2023/06/01 11:26:56;;;;;;;17.65;12.45;;;29.40;81.60;;;;;;7290703;19;20199;-83
2023/06/01 11:29:23;;;;;;;24.38;13.15;;;29.60;80.00;;;;;;7287385;19;20272;-83
2023/06/01 11:31:57;;;;;;;21.98;13.57;;;29.50;79.30;;;;;;7288003;19;20204;-83
2023/06/01 11:34:41;;;;;;;23.52;13.63;;;30.10;75.70;;;;;;7290758;19;20193;-83
2023/06/01 11:37:14;;;;;;;22.88;12.38;;;29.30;75.70;;;;;;7288012;19;20592;-83
2023/06/01 11:39:41;;;;;;;20.60;13.27;;;29.10;78.00;;;;;;7289193;19;20192;-83
2023/06/01 11:42:09;;;;;;;20.60;12.27;;;28.50;76.30;;;;;;7288507;19;20177;-83
2023/06/01 11:44:40;;;;;;;21.13;12.52;;;28.40;78.60;;;;;;7288838;19;20197;-83
2023/06/01 11:47:07;;;;;;;19.98;12.68;;;29.10;83.00;;;;;;7288636;19;20191;-83
2023/06/01 11:49:48;;;;;;;22.17;12.00;;;29.40;79.20;;;;;;7288734;19;20257;-83
2023/06/01 11:52:15;;;;;;;21.13;13.95;;;29.40;79.70;;;;;;7266308;19;20609;-83
2023/06/01 11:54:41;;;;;;;19.05;12.75;;;29.10;76.70;;;;;;7310508;19;20185;-83
2023/06/01 11:57:07;;;;;;;21.45;12.90;;;28.40;78.20;;;;;;7288330;19;20192;-84
2023/06/01 11:59:52;;;;;;;20.75;12.27;;;28.30;77.20;;;;;;7289294;19;20182;-84
2023/06/01 12:02:26;;;;;;;25.15;14.10;;;28.20;79.00;;;;;;7186665;19;2004672;-83
2023/06/01 12:04:57;;;;;;;21.75;12.63;;;27.40;78.70;;;;;;7289125;19;20195;-83
2023/06/01 12:07:24;;;;;;;22.15;13.77;;;26.70;81.20;;;;;;7287191;19;20192;-83
2023/06/01 12:09:53;;;;;;;24.48;13.55;;;26.00;84.80;;;;;;7288783;19;20205;-83
2023/06/01 12:12:21;;;;;;;21.65;13.02;;;25.70;84.00;;;;;;7288216;19;20200;-83
2023/06/01 12:14:49;;;;;;;25.02;12.90;;;25.50;85.60;;;;;;7294674;19;20189;-83
2023/06/01 12:17:15;;;;;;;20.15;13.25;;;25.50;89.50;;;;;;7310269;19;20269;-83
2023/06/01 12:19:50;;;;;;;22.15;13.15;;;25.50;86.70;;;;;;7324429;19;20252;-82
2023/06/01 12:22:17;;;;;;;18.75;12.65;;;25.70;83.60;;;;;;7265858;19;20193;-83
2023/06/01 12:24:44;;;;;;;23.85;13.38;;;25.30;85.30;;;;;;7309755;19;20216;-82
2023/06/01 12:27:15;;;;;;;21.92;13.48;;;24.90;87.00;;;;;;7289668;19;20356;-84
2023/06/01 12:29:42;;;;;;;24.65;13.85;;;25.00;87.10;;;;;;7288328;19;20185;-84
2023/06/01 12:32:10;;;;;;;23.15;12.57;;;24.90;89.00;;;;;;7289531;19;20653;-83
2023/06/01 12:34:37;;;;;;;23.65;12.27;;;24.80;89.30;;;;;;7289092;19;20185;-83